Time;durP1;ratioP1;P1;durP2;ratioP2;P2;SDS_P1;SDS_P2;PMS_P1;PMS_P2;Temp;Humidity;BMP_temperature;BMP_pressure;BME280_temperature;BME280_humidity;BME280_pressure;Samples;Min_cycle;Max_cycle;Signal;HPM_P1;HPM_P2
2022/05/07 00:02:08;;;;;;;7.43;1.50;;;14.70;99.90;;;;;;5027273;28;20046;-72
2022/05/07 00:04:35;;;;;;;0.73;0.73;;;14.80;99.90;;;;;;5027611;28;20550;-71
2022/05/07 00:07:01;;;;;;;3.05;1.85;;;14.80;99.90;;;;;;5017743;28;20064;-71
2022/05/07 00:09:27;;;;;;;0.63;0.63;;;14.80;99.90;;;;;;5019921;28;20187;-71
2022/05/07 00:11:52;;;;;;;1.52;1.42;;;14.70;99.90;;;;;;5022401;28;20488;-71
2022/05/07 00:14:18;;;;;;;3.83;0.98;;;14.70;99.90;;;;;;5013793;28;20034;-71
2022/05/07 00:19:28;;;;;;;0.98;0.70;;;14.70;99.90;;;;;;5015203;28;20107;-71
2022/05/07 00:21:53;;;;;;;3.70;2.47;;;14.70;99.90;;;;;;5021385;28;20389;-71
2022/05/07 00:24:19;;;;;;;5.22;2.40;;;14.80;99.90;;;;;;5026031;28;20041;-71
2022/05/07 00:26:45;;;;;;;2.35;2.15;;;14.80;99.90;;;;;;5018299;28;20121;-70
2022/05/07 00:29:10;;;;;;;2.42;1.63;;;14.80;99.90;;;;;;5016984;28;20128;-71
2022/05/07 00:31:36;;;;;;;2.38;1.30;;;14.80;99.90;;;;;;5028243;28;20030;-70
2022/05/07 00:34:01;;;;;;;1.30;0.55;;;14.80;99.90;;;;;;5025837;28;20063;-71
2022/05/07 00:36:27;;;;;;;1.23;1.17;;;14.90;99.90;;;;;;5018209;28;20405;-70
2022/05/07 00:38:52;;;;;;;1.75;0.85;;;14.80;99.90;;;;;;5027758;28;20045;-70
2022/05/07 00:41:18;;;;;;;3.47;2.10;;;14.80;99.90;;;;;;5023326;28;20045;-70
2022/05/07 00:43:44;;;;;;;4.00;2.47;;;14.80;99.90;;;;;;5014534;28;20044;-70
2022/05/07 00:46:11;;;;;;;2.10;1.90;;;14.80;99.90;;;;;;5018597;28;20045;-70
2022/05/07 00:48:37;;;;;;;1.30;1.02;;;14.80;99.90;;;;;;5018061;28;20401;-70
2022/05/07 00:53:48;;;;;;;0.57;0.57;;;14.80;99.90;;;;;;5023910;28;20088;-70
2022/05/07 00:56:13;;;;;;;1.73;1.63;;;14.80;99.90;;;;;;5024969;28;20403;-71
2022/05/07 00:58:39;;;;;;;1.15;0.77;;;14.80;99.90;;;;;;5018843;28;20144;-70
2022/05/07 01:01:05;;;;;;;1.23;1.17;;;14.80;99.90;;;;;;5019617;28;20431;-70
2022/05/07 01:03:31;;;;;;;2.63;1.48;;;14.80;99.90;;;;;;5027087;28;20400;-70
2022/05/07 01:05:57;;;;;;;6.13;3.25;;;14.90;99.90;;;;;;5022847;28;20073;-70
2022/05/07 01:08:25;;;;;;;2.13;1.58;;;14.80;99.90;;;;;;5019512;28;20130;-70
2022/05/07 01:10:52;;;;;;;5.47;2.40;;;14.80;99.90;;;;;;5025399;28;20037;-70
2022/05/07 01:13:18;;;;;;;0.88;0.77;;;14.70;99.90;;;;;;5026677;28;20497;-70
2022/05/07 01:15:45;;;;;;;0.90;0.90;;;14.70;99.90;;;;;;5019228;28;20041;-70
2022/05/07 01:18:12;;;;;;;2.83;1.98;;;14.70;99.90;;;;;;5023618;28;20057;-70
2022/05/07 01:20:38;;;;;;;0.77;0.77;;;14.60;99.90;;;;;;5027174;28;20121;-70
2022/05/07 01:23:04;;;;;;;0.70;0.70;;;14.70;99.90;;;;;;5018188;28;20046;-69
2022/05/07 01:25:30;;;;;;;1.60;1.38;;;14.70;99.90;;;;;;5014185;28;20041;-70
2022/05/07 01:27:56;;;;;;;1.50;1.40;;;14.60;99.90;;;;;;5017640;28;20532;-69
2022/05/07 01:30:23;;;;;;;2.15;1.70;;;14.60;99.90;;;;;;5021869;28;20156;-70
2022/05/07 01:32:49;;;;;;;1.38;1.00;;;14.50;99.90;;;;;;5031990;28;20044;-70
2022/05/07 01:35:14;;;;;;;1.27;1.17;;;14.50;99.90;;;;;;5021171;28;20050;-70
2022/05/07 01:37:40;;;;;;;7.63;2.25;;;14.50;99.90;;;;;;5021116;28;20038;-70
2022/05/07 01:40:06;;;;;;;0.50;0.50;;;14.40;99.90;;;;;;5022262;28;20052;-69
2022/05/07 01:42:32;;;;;;;2.33;1.60;;;14.50;99.90;;;;;;5028154;28;20041;-69
2022/05/07 01:44:57;;;;;;;1.48;1.38;;;14.50;99.90;;;;;;5031262;28;20038;-69
2022/05/07 01:50:07;;;;;;;1.10;0.98;;;14.50;99.90;;;;;;5025647;28;20060;-69
2022/05/07 01:52:33;;;;;;;0.30;0.30;;;14.40;99.90;;;;;;5025306;28;20057;-69
2022/05/07 01:54:58;;;;;;;1.50;1.35;;;14.50;99.90;;;;;;5025194;28;20052;-69
2022/05/07 01:57:24;;;;;;;2.15;1.98;;;14.40;99.90;;;;;;5031310;28;20041;-69
2022/05/07 01:59:50;;;;;;;3.38;2.47;;;14.40;99.90;;;;;;5029537;28;20045;-69
2022/05/07 02:02:15;;;;;;;1.08;0.73;;;14.30;99.90;;;;;;5019888;28;20111;-69
2022/05/07 02:04:41;;;;;;;0.75;0.75;;;14.30;99.90;;;;;;5023987;28;20053;-68
2022/05/07 02:07:07;;;;;;;1.67;1.58;;;14.40;99.90;;;;;;5022558;28;20041;-69
2022/05/07 02:09:33;;;;;;;1.25;1.25;;;14.30;99.90;;;;;;5024914;28;20065;-69
2022/05/07 02:11:58;;;;;;;4.88;2.97;;;14.20;99.90;;;;;;5023764;28;20140;-69
2022/05/07 02:14:24;;;;;;;1.75;1.65;;;14.30;99.90;;;;;;5029377;28;20049;-69
2022/05/07 02:16:49;;;;;;;1.88;1.58;;;14.20;99.90;;;;;;5023831;28;20444;-69
2022/05/07 02:19:15;;;;;;;0.65;0.65;;;14.20;99.90;;;;;;5027532;28;20547;-69
2022/05/07 02:21:41;;;;;;;0.73;0.73;;;14.20;99.90;;;;;;5030222;28;20046;-69
2022/05/07 02:24:07;;;;;;;1.55;1.45;;;14.10;99.90;;;;;;5028997;28;20052;-68
2022/05/07 02:26:32;;;;;;;1.58;1.48;;;14.10;99.90;;;;;;5021491;28;20050;-69
2022/05/07 02:28:58;;;;;;;1.80;1.70;;;14.10;99.90;;;;;;5021274;28;20403;-69
2022/05/07 02:31:23;;;;;;;3.60;1.30;;;14.10;99.90;;;;;;5027278;28;20439;-69
2022/05/07 02:33:51;;;;;;;0.57;0.47;;;14.00;99.90;;;;;;5020169;28;20051;-68
2022/05/07 02:36:16;;;;;;;0.95;0.90;;;14.00;99.90;;;;;;5028269;28;20381;-68
2022/05/07 02:38:42;;;;;;;2.65;2.45;;;14.00;99.90;;;;;;5021174;28;20103;-69
2022/05/07 02:43:52;;;;;;;1.40;1.00;;;14.00;99.90;;;;;;5018899;28;20046;-68
2022/05/07 02:46:17;;;;;;;2.03;1.80;;;14.00;99.90;;;;;;5017144;28;20120;-68
2022/05/07 02:48:46;;;;;;;2.90;1.83;;;14.00;99.90;;;;;;5015924;28;20567;-68
2022/05/07 02:51:12;;;;;;;4.85;2.45;;;14.10;99.90;;;;;;5022069;28;20041;-68
2022/05/07 02:53:38;;;;;;;1.40;0.47;;;14.00;99.90;;;;;;5029339;28;20524;-68
2022/05/07 02:56:04;;;;;;;1.75;1.45;;;14.00;99.90;;;;;;5028884;28;20516;-68
2022/05/07 02:58:30;;;;;;;1.13;0.85;;;14.00;99.90;;;;;;5018797;28;20413;-68
2022/05/07 03:00:57;;;;;;;2.53;2.33;;;14.00;99.90;;;;;;5029805;28;20046;-68
2022/05/07 03:03:22;;;;;;;0.63;0.63;;;14.00;99.90;;;;;;5021400;28;20060;-68
2022/05/07 03:05:48;;;;;;;1.42;1.33;;;13.90;99.90;;;;;;5023351;28;20057;-68
2022/05/07 03:08:13;;;;;;;1.50;1.40;;;14.10;99.90;;;;;;5028867;28;20069;-68
2022/05/07 03:10:39;;;;;;;6.78;3.17;;;14.00;99.90;;;;;;5015004;28;20701;-68
2022/05/07 03:13:05;;;;;;;3.30;1.52;;;14.00;99.90;;;;;;5020864;28;20076;-68
2022/05/07 03:15:31;;;;;;;3.17;2.08;;;14.10;99.90;;;;;;5022006;28;20045;-68
2022/05/07 03:17:56;;;;;;;3.70;2.53;;;14.10;99.90;;;;;;5026767;28;20045;-68
2022/05/07 03:20:22;;;;;;;0.50;0.50;;;14.10;99.90;;;;;;5029311;28;20037;-68
2022/05/07 03:22:48;;;;;;;9.88;1.55;;;14.20;99.90;;;;;;5022226;28;20053;-68
2022/05/07 03:25:13;;;;;;;1.27;1.20;;;14.20;99.90;;;;;;5020992;28;20073;-68
2022/05/07 03:27:39;;;;;;;1.20;1.10;;;14.20;99.90;;;;;;5029241;28;20124;-68
2022/05/07 03:30:07;;;;;;;2.50;1.50;;;14.10;99.90;;;;;;5028618;28;20072;-68
2022/05/07 03:32:33;;;;;;;0.95;0.95;;;14.00;99.90;;;;;;5018593;28;20551;-68
2022/05/07 03:34:59;;;;;;;13.85;2.20;;;14.00;99.90;;;;;;5021554;28;20045;-68
2022/05/07 03:37:25;;;;;;;0.57;0.57;;;14.10;99.90;;;;;;5013981;28;20052;-68
2022/05/07 03:39:51;;;;;;;1.08;0.98;;;14.10;99.90;;;;;;5028186;28;20054;-68
2022/05/07 03:42:18;;;;;;;1.17;1.00;;;14.10;99.90;;;;;;5019075;28;20464;-68
2022/05/07 03:44:44;;;;;;;0.85;0.50;;;14.00;99.90;;;;;;5023474;28;20129;-68
2022/05/07 03:47:09;;;;;;;1.73;1.27;;;14.00;99.90;;;;;;5014687;28;20549;-68
2022/05/07 03:49:35;;;;;;;3.15;0.73;;;14.00;99.90;;;;;;5018501;28;20033;-68
2022/05/07 03:54:44;;;;;;;1.33;1.23;;;14.00;99.90;;;;;;5023555;28;20061;-68
2022/05/07 03:57:13;;;;;;;1.45;1.35;;;14.00;99.90;;;;;;5017532;28;20395;-69
2022/05/07 03:59:39;;;;;;;0.88;0.88;;;14.00;99.90;;;;;;5027354;28;20051;-67
2022/05/07 04:02:05;;;;;;;2.67;1.38;;;14.00;99.90;;;;;;5027339;28;20659;-67
2022/05/07 04:04:31;;;;;;;0.73;0.73;;;14.00;99.90;;;;;;5018085;28;20042;-67
2022/05/07 04:06:58;;;;;;;0.57;0.57;;;14.00;99.90;;;;;;5020855;28;20163;-67
2022/05/07 04:09:24;;;;;;;1.55;0.47;;;14.00;99.90;;;;;;5018015;28;20045;-68
2022/05/07 04:11:50;;;;;;;1.10;1.00;;;14.00;99.90;;;;;;5024025;28;20056;-68
2022/05/07 04:14:15;;;;;;;2.20;1.70;;;14.00;99.90;;;;;;5021501;28;20045;-68
2022/05/07 04:16:41;;;;;;;1.70;1.00;;;14.10;99.90;;;;;;5015970;28;20511;-67
2022/05/07 04:19:06;;;;;;;4.20;0.68;;;14.10;99.90;;;;;;5026963;28;20050;-68
2022/05/07 04:21:37;;;;;;;1.20;1.05;;;14.10;99.90;;;;;;5027620;28;20085;-68
2022/05/07 04:24:04;;;;;;;0.93;0.93;;;14.00;99.90;;;;;;5012841;28;20045;-68
2022/05/07 04:26:29;;;;;;;0.43;0.43;;;14.00;99.90;;;;;;5026556;28;20033;-68
2022/05/07 04:28:55;;;;;;;1.20;0.63;;;14.10;99.90;;;;;;5027303;28;20049;-67
2022/05/07 04:31:21;;;;;;;1.27;0.75;;;14.10;99.90;;;;;;5017761;28;20128;-68
2022/05/07 04:33:46;;;;;;;0.73;0.73;;;14.10;99.90;;;;;;5015245;28;20057;-68
2022/05/07 04:36:12;;;;;;;0.45;0.45;;;14.00;99.90;;;;;;5015393;28;20037;-68
2022/05/07 04:38:37;;;;;;;2.10;1.77;;;14.00;99.90;;;;;;5026179;28;20171;-68
2022/05/07 04:41:03;;;;;;;0.85;0.85;;;14.00;99.90;;;;;;5023184;28;20140;-67
2022/05/07 04:43:28;;;;;;;2.13;1.95;;;14.10;99.90;;;;;;5025756;28;20049;-67
2022/05/07 04:45:54;;;;;;;0.90;0.57;;;14.00;99.90;;;;;;5016790;28;20125;-67
2022/05/07 04:48:19;;;;;;;0.98;0.98;;;14.00;99.90;;;;;;5021472;28;20052;-68
2022/05/07 04:50:45;;;;;;;0.20;0.20;;;14.00;99.90;;;;;;5019001;28;20058;-67
2022/05/07 04:53:11;;;;;;;0.43;0.43;;;14.00;99.90;;;;;;5018069;28;20061;-67
2022/05/07 04:55:36;;;;;;;2.55;1.45;;;14.00;99.90;;;;;;5014210;28;20038;-67
2022/05/07 04:58:02;;;;;;;0.73;0.73;;;14.00;99.90;;;;;;5024444;28;20045;-68
2022/05/07 05:00:28;;;;;;;4.80;1.20;;;14.00;99.90;;;;;;5018509;28;20038;-68
2022/05/07 05:02:53;;;;;;;3.15;1.52;;;14.00;99.90;;;;;;5021726;28;20132;-68
2022/05/07 05:05:19;;;;;;;1.90;1.25;;;14.10;99.90;;;;;;5027611;28;20050;-68
2022/05/07 05:07:44;;;;;;;0.43;0.43;;;14.10;99.90;;;;;;5025244;28;20057;-68
2022/05/07 05:10:10;;;;;;;0.30;0.30;;;14.10;99.90;;;;;;5015178;28;20741;-67
2022/05/07 05:12:36;;;;;;;1.67;1.58;;;14.20;99.90;;;;;;5023021;28;20044;-68
2022/05/07 05:15:03;;;;;;;1.60;1.50;;;14.20;99.90;;;;;;5027138;28;20037;-68
2022/05/07 05:17:29;;;;;;;0.32;0.32;;;14.20;99.90;;;;;;5020761;28;20068;-68
2022/05/07 05:19:54;;;;;;;1.63;1.45;;;14.30;99.90;;;;;;5017197;28;20117;-68
2022/05/07 05:22:20;;;;;;;1.48;0.55;;;14.30;99.90;;;;;;5025370;28;20037;-68
2022/05/07 05:24:46;;;;;;;0.40;0.40;;;14.40;99.90;;;;;;5026937;28;20045;-68
2022/05/07 05:27:11;;;;;;;0.73;0.65;;;14.40;99.90;;;;;;5013315;28;20042;-68
2022/05/07 05:29:37;;;;;;;0.28;0.28;;;14.40;99.90;;;;;;5014345;28;20064;-68
2022/05/07 05:32:03;;;;;;;1.08;0.60;;;14.40;99.90;;;;;;5018866;28;20400;-68
2022/05/07 05:34:29;;;;;;;1.02;0.90;;;14.50;99.90;;;;;;5026691;28;20042;-68
2022/05/07 05:36:54;;;;;;;0.95;0.95;;;14.50;99.90;;;;;;5015028;28;20125;-68
2022/05/07 05:39:20;;;;;;;0.68;0.68;;;14.50;99.90;;;;;;5021499;28;20241;-68
2022/05/07 05:41:45;;;;;;;0.65;0.65;;;14.60;99.90;;;;;;5018754;28;20096;-68
2022/05/07 05:44:11;;;;;;;1.73;1.13;;;14.60;99.90;;;;;;5016906;28;20100;-68
2022/05/07 05:46:37;;;;;;;0.10;0.10;;;14.60;99.90;;;;;;5017282;28;20049;-68
2022/05/07 05:49:03;;;;;;;0.52;0.52;;;14.60;99.90;;;;;;5023718;28;20132;-68
2022/05/07 05:51:29;;;;;;;3.83;2.95;;;14.60;99.90;;;;;;5024520;28;20121;-68
2022/05/07 05:53:54;;;;;;;1.13;0.95;;;14.50;99.90;;;;;;5026082;28;20084;-68
2022/05/07 05:56:20;;;;;;;1.27;1.17;;;14.50;99.90;;;;;;5018338;28;20492;-68
2022/05/07 05:58:45;;;;;;;2.10;1.67;;;14.60;99.90;;;;;;5022501;28;20044;-68
2022/05/07 06:01:11;;;;;;;1.73;1.63;;;14.60;99.90;;;;;;5016668;28;20135;-68
2022/05/07 06:03:37;;;;;;;1.85;1.70;;;14.60;99.90;;;;;;5016444;28;20042;-69
2022/05/07 06:06:03;;;;;;;1.88;1.42;;;14.60;99.90;;;;;;5025025;28;20096;-69
2022/05/07 06:08:29;;;;;;;1.65;1.55;;;14.70;99.90;;;;;;5018279;28;20045;-68
2022/05/07 06:10:57;;;;;;;1.52;1.42;;;14.70;99.90;;;;;;5014568;28;20049;-68
2022/05/07 06:13:23;;;;;;;0.50;0.50;;;14.80;99.90;;;;;;5026162;28;20038;-69
2022/05/07 06:15:52;;;;;;;0.73;0.73;;;14.80;99.90;;;;;;5026708;28;20484;-68
2022/05/07 06:18:21;;;;;;;1.13;0.98;;;14.90;99.90;;;;;;5016979;28;20041;-68
2022/05/07 06:20:49;;;;;;;2.50;2.08;;;15.00;99.90;;;;;;5024805;28;20041;-68
2022/05/07 06:23:15;;;;;;;0.47;0.47;;;15.00;99.90;;;;;;5025644;28;20049;-68
2022/05/07 06:28:25;;;;;;;0.57;0.57;;;15.20;99.90;;;;;;5018134;28;20084;-69
2022/05/07 06:30:51;;;;;;;1.42;0.90;;;15.30;99.90;;;;;;5026610;28;20059;-68
2022/05/07 06:33:17;;;;;;;0.88;0.88;;;15.30;99.90;;;;;;5028108;28;20045;-69
2022/05/07 06:35:43;;;;;;;5.03;1.77;;;15.30;99.90;;;;;;5019093;28;20037;-69
2022/05/07 06:38:09;;;;;;;0.75;0.75;;;15.30;99.90;;;;;;5030790;28;20053;-68
2022/05/07 06:40:37;;;;;;;1.08;1.08;;;15.30;99.90;;;;;;5021512;28;20041;-69
2022/05/07 06:43:03;;;;;;;0.47;0.47;;;15.30;99.90;;;;;;5024369;28;20037;-69
2022/05/07 06:45:29;;;;;;;0.55;0.55;;;15.40;99.90;;;;;;5029095;28;20499;-69
2022/05/07 06:47:54;;;;;;;4.55;1.05;;;15.40;99.90;;;;;;5028682;28;20049;-69
2022/05/07 06:50:20;;;;;;;0.70;0.70;;;15.40;99.90;;;;;;5013461;28;20081;-69
2022/05/07 06:52:46;;;;;;;6.90;2.55;;;15.40;99.90;;;;;;5020867;28;20065;-70
2022/05/07 06:55:16;;;;;;;0.80;0.80;;;15.40;99.90;;;;;;5026230;28;20081;-69
2022/05/07 06:57:42;;;;;;;2.30;1.88;;;15.30;99.90;;;;;;5016500;28;20494;-69
2022/05/07 07:00:12;;;;;;;3.92;3.50;;;15.40;99.90;;;;;;5022586;28;20051;-69
2022/05/07 07:02:38;;;;;;;0.82;0.82;;;15.40;99.90;;;;;;5023154;28;20096;-69
2022/05/07 07:05:04;;;;;;;8.90;3.95;;;15.40;99.90;;;;;;5027138;28;20042;-69
2022/05/07 07:07:31;;;;;;;4.47;1.90;;;15.40;99.90;;;;;;5021707;28;20134;-69
2022/05/07 07:09:56;;;;;;;1.27;1.17;;;15.40;99.90;;;;;;5027717;28;20560;-69
2022/05/07 07:12:22;;;;;;;0.80;0.80;;;15.40;99.90;;;;;;5026482;28;20120;-69
2022/05/07 07:14:48;;;;;;;0.65;0.65;;;15.40;99.90;;;;;;5024240;28;20045;-70
2022/05/07 07:17:18;;;;;;;4.68;1.65;;;15.30;99.90;;;;;;5023458;28;20456;-69
2022/05/07 07:19:44;;;;;;;13.45;2.38;;;15.30;99.90;;;;;;5018413;28;20049;-70
2022/05/07 07:22:10;;;;;;;0.45;0.45;;;15.40;99.90;;;;;;5029384;28;20046;-70
2022/05/07 07:24:36;;;;;;;0.93;0.93;;;15.30;99.90;;;;;;5028572;28;20038;-69
2022/05/07 07:27:03;;;;;;;0.50;0.50;;;15.20;99.90;;;;;;5019895;28;20049;-69
2022/05/07 07:29:29;;;;;;;1.05;1.00;;;15.20;99.90;;;;;;5028630;28;20048;-69
2022/05/07 07:31:54;;;;;;;1.98;1.88;;;15.30;99.90;;;;;;5030310;28;20045;-69
2022/05/07 07:34:21;;;;;;;1.05;0.98;;;15.20;99.90;;;;;;5020931;28;20398;-70
2022/05/07 07:36:50;;;;;;;0.38;0.38;;;15.20;99.90;;;;;;5022837;28;20046;-69
2022/05/07 07:39:16;;;;;;;0.70;0.70;;;15.20;99.90;;;;;;5029880;28;20042;-69
2022/05/07 07:41:42;;;;;;;2.08;1.42;;;15.20;99.90;;;;;;5021139;28;20049;-70
2022/05/07 07:44:08;;;;;;;0.98;0.90;;;15.30;99.90;;;;;;5011508;28;20045;-69
2022/05/07 07:49:18;;;;;;;3.75;1.08;;;15.30;99.90;;;;;;5017268;28;20042;-69
2022/05/07 07:51:44;;;;;;;1.00;1.00;;;15.30;99.90;;;;;;5022559;28;20387;-69
2022/05/07 07:54:10;;;;;;;1.48;1.38;;;15.40;99.90;;;;;;5021494;28;20571;-67
2022/05/07 07:56:35;;;;;;;3.35;1.00;;;15.40;99.90;;;;;;5019786;28;20078;-68
2022/05/07 07:59:01;;;;;;;0.50;0.50;;;15.60;99.90;;;;;;5021923;28;20041;-67
2022/05/07 08:01:27;;;;;;;14.43;1.35;;;15.60;99.90;;;;;;5022080;28;20053;-67
2022/05/07 08:03:52;;;;;;;1.23;1.13;;;15.70;99.90;;;;;;5028137;28;20044;-68
2022/05/07 08:06:18;;;;;;;6.68;2.53;;;15.80;99.90;;;;;;5029582;28;20064;-68
2022/05/07 08:11:40;;;;;;;1.10;1.02;;;15.90;99.90;;;;;;5011806;28;20064;-68
2022/05/07 08:14:09;;;;;;;1.63;0.73;;;16.20;99.90;;;;;;5024801;28;20120;-68
2022/05/07 08:16:35;;;;;;;0.93;0.93;;;16.20;99.90;;;;;;5021658;28;20045;-68
2022/05/07 08:19:03;;;;;;;1.35;0.75;;;16.20;99.90;;;;;;5023433;28;20041;-68
2022/05/07 08:21:29;;;;;;;0.28;0.28;;;16.30;99.90;;;;;;5017801;28;20050;-68
2022/05/07 08:23:55;;;;;;;1.17;0.50;;;16.30;99.90;;;;;;5024704;28;20520;-68
2022/05/07 08:26:21;;;;;;;1.90;0.35;;;16.20;99.90;;;;;;5027769;28;20053;-68
2022/05/07 08:28:47;;;;;;;1.40;1.30;;;16.20;99.90;;;;;;5022402;28;20045;-68
2022/05/07 08:31:13;;;;;;;0.85;0.85;;;16.20;99.90;;;;;;5017303;28;20103;-67
2022/05/07 08:33:41;;;;;;;1.15;1.15;;;16.30;99.90;;;;;;5024866;28;20045;-68
2022/05/07 08:36:07;;;;;;;0.60;0.60;;;16.30;99.90;;;;;;5022273;28;20046;-67
2022/05/07 08:38:32;;;;;;;0.40;0.40;;;16.40;99.90;;;;;;5017307;28;20401;-68
2022/05/07 08:41:00;;;;;;;3.90;1.45;;;16.40;99.90;;;;;;5020690;28;20077;-67
2022/05/07 08:43:30;;;;;;;2.53;1.00;;;16.60;99.90;;;;;;5025329;28;20048;-68
2022/05/07 08:45:56;;;;;;;0.60;0.57;;;16.70;99.90;;;;;;5028301;28;20068;-67
2022/05/07 08:48:22;;;;;;;2.17;1.00;;;16.80;99.90;;;;;;5014133;28;20057;-67
2022/05/07 08:50:49;;;;;;;0.43;0.43;;;16.80;99.90;;;;;;5020118;28;20473;-67
2022/05/07 08:53:14;;;;;;;3.03;0.95;;;16.80;99.90;;;;;;5015327;28;20088;-67
2022/05/07 08:55:40;;;;;;;0.90;0.60;;;16.80;99.90;;;;;;5013365;28;20469;-67
2022/05/07 08:58:06;;;;;;;0.70;0.50;;;16.80;99.90;;;;;;5023131;28;20049;-67
2022/05/07 09:00:33;;;;;;;0.55;0.55;;;16.80;99.90;;;;;;5010772;28;20370;-67
2022/05/07 09:03:01;;;;;;;0.35;0.35;;;16.80;99.90;;;;;;5026367;28;20095;-67
2022/05/07 09:05:35;;;;;;;1.50;1.13;;;16.80;99.90;;;;;;5023553;28;20108;-67
2022/05/07 09:08:01;;;;;;;1.58;1.42;;;16.80;99.90;;;;;;5027768;28;20096;-67
2022/05/07 09:10:31;;;;;;;2.60;1.17;;;16.80;99.90;;;;;;5015932;28;20045;-67
2022/05/07 09:13:10;;;;;;;0.10;0.10;;;16.80;99.90;;;;;;5024121;28;20471;-66
2022/05/07 09:15:49;;;;;;;1.67;0.98;;;16.80;99.90;;;;;;5026163;28;20461;-67
2022/05/07 09:18:16;;;;;;;0.30;0.25;;;16.80;99.90;;;;;;5008623;28;20038;-66
2022/05/07 09:20:42;;;;;;;0.25;0.25;;;16.70;99.90;;;;;;5011393;28;20502;-66
2022/05/07 09:23:10;;;;;;;2.33;2.13;;;16.70;99.90;;;;;;5017371;28;20046;-66
2022/05/07 09:25:48;;;;;;;1.17;1.10;;;16.60;99.90;;;;;;5015523;28;20597;-66
2022/05/07 09:28:28;;;;;;;1.67;1.58;;;16.50;99.90;;;;;;5027424;28;20461;-66
2022/05/07 09:30:57;;;;;;;0.73;0.73;;;16.50;99.90;;;;;;5022542;28;20382;-66
2022/05/07 09:33:35;;;;;;;0.22;0.22;;;16.50;99.90;;;;;;5016676;28;20045;-66
2022/05/07 09:36:13;;;;;;;0.52;0.52;;;16.60;99.90;;;;;;5015232;28;20069;-66
2022/05/07 09:38:38;;;;;;;0.60;0.60;;;16.60;99.90;;;;;;5026997;28;20046;-66
2022/05/07 09:41:05;;;;;;;1.52;1.10;;;16.60;99.90;;;;;;5018820;28;20405;-66
2022/05/07 09:43:31;;;;;;;2.20;2.00;;;16.60;99.90;;;;;;5020099;28;20041;-66
2022/05/07 09:45:57;;;;;;;5.85;2.42;;;16.60;99.90;;;;;;5019229;28;20053;-66
2022/05/07 09:48:23;;;;;;;1.08;1.08;;;16.70;99.90;;;;;;5028983;28;20067;-66
2022/05/07 09:50:50;;;;;;;0.55;0.55;;;16.60;99.90;;;;;;5021161;28;20045;-66
2022/05/07 09:58:48;;;;;;;0.70;0.70;;;16.90;99.90;;;;;;5014762;28;20072;-66
2022/05/07 10:01:25;;;;;;;0.43;0.40;;;16.90;99.90;;;;;;5031954;28;20653;-66
2022/05/07 10:04:14;;;;;;;4.47;2.00;;;17.00;99.90;;;;;;5027718;28;20496;-67
2022/05/07 10:07:08;;;;;;;0.45;0.45;;;17.10;99.90;;;;;;5014982;28;20504;-66
2022/05/07 10:10:07;;;;;;;1.65;1.33;;;17.20;99.90;;;;;;5016118;28;20052;-66
2022/05/07 10:12:34;;;;;;;1.60;1.50;;;17.10;99.90;;;;;;5025323;28;20637;-66
2022/05/07 10:15:12;;;;;;;0.15;0.15;;;17.20;99.90;;;;;;5018626;28;20041;-66
2022/05/07 10:17:38;;;;;;;0.70;0.68;;;17.30;99.90;;;;;;5018754;28;20055;-67
2022/05/07 10:20:06;;;;;;;0.68;0.68;;;17.30;99.90;;;;;;5021516;28;20037;-66
2022/05/07 10:22:31;;;;;;;0.30;0.30;;;17.50;99.90;;;;;;5018708;28;20063;-67
2022/05/07 10:25:01;;;;;;;0.45;0.45;;;17.60;99.90;;;;;;5014441;28;20050;-66
2022/05/07 10:27:31;;;;;;;1.42;0.60;;;17.70;99.90;;;;;;5028979;28;20496;-67
2022/05/07 10:30:09;;;;;;;0.10;0.10;;;17.50;99.90;;;;;;5021006;28;20473;-67
2022/05/07 10:32:57;;;;;;;1.15;1.08;;;17.60;99.90;;;;;;5015171;28;20370;-67
2022/05/07 10:35:47;;;;;;;0.10;0.10;;;17.40;99.90;;;;;;5016562;28;20374;-67
2022/05/07 10:38:35;;;;;;;0.30;0.30;;;17.50;99.90;;;;;;5028605;28;20046;-66
2022/05/07 10:41:07;;;;;;;0.05;0.05;;;17.60;99.90;;;;;;5019386;28;20556;-66
2022/05/07 10:43:36;;;;;;;0.28;0.28;;;17.50;99.90;;;;;;5021144;28;20112;-66
2022/05/07 10:46:43;;;;;;;0.00;0.00;;;17.40;99.90;;;;;;5023280;28;20131;-66
2022/05/07 10:49:09;;;;;;;0.10;0.10;;;17.40;99.90;;;;;;5022998;28;20050;-66
2022/05/07 10:51:53;;;;;;;0.90;0.90;;;17.50;99.90;;;;;;5030088;28;20072;-66
2022/05/07 10:54:26;;;;;;;0.47;0.47;;;17.50;99.90;;;;;;5029536;28;20079;-66
2022/05/07 10:56:57;;;;;;;0.25;0.25;;;17.50;99.90;;;;;;5020039;28;20058;-66
2022/05/07 10:59:26;;;;;;;0.08;0.08;;;17.70;99.90;;;;;;5018203;28;20033;-66
2022/05/07 11:02:02;;;;;;;0.65;0.63;;;18.00;99.90;;;;;;5028746;28;20148;-66
2022/05/07 11:04:28;;;;;;;0.10;0.10;;;18.10;99.90;;;;;;5019256;28;20077;-66
2022/05/07 11:06:54;;;;;;;0.43;0.43;;;17.80;99.90;;;;;;5016382;28;20050;-67
2022/05/07 11:09:25;;;;;;;2.05;1.20;;;18.00;99.90;;;;;;5030108;28;20044;-66
2022/05/07 11:11:53;;;;;;;0.90;0.90;;;18.10;99.90;;;;;;5015851;28;20052;-66
2022/05/07 11:14:26;;;;;;;0.55;0.55;;;18.50;99.90;;;;;;5026874;28;20052;-66
2022/05/07 11:16:55;;;;;;;0.65;0.65;;;18.50;99.90;;;;;;5025162;28;20527;-66
2022/05/07 11:19:25;;;;;;;0.50;0.50;;;18.70;99.90;;;;;;5020822;28;20036;-67
2022/05/07 11:21:52;;;;;;;0.50;0.50;;;18.90;99.90;;;;;;5015915;28;20038;-67
2022/05/07 11:24:20;;;;;;;0.93;0.43;;;19.40;99.90;;;;;;5019674;28;20045;-67
2022/05/07 11:26:58;;;;;;;6.32;1.40;;;19.50;99.90;;;;;;5023465;28;20064;-66
2022/05/07 11:29:25;;;;;;;0.08;0.08;;;19.60;99.90;;;;;;5019529;28;20041;-67
2022/05/07 11:31:59;;;;;;;0.93;0.93;;;19.60;99.90;;;;;;5015871;28;20049;-66
2022/05/07 11:34:30;;;;;;;4.32;0.45;;;19.40;99.90;;;;;;5019097;28;20501;-67
2022/05/07 11:37:08;;;;;;;0.10;0.10;;;19.90;99.90;;;;;;5023936;28;20052;-66
2022/05/07 11:39:33;;;;;;;0.28;0.28;;;19.60;99.90;;;;;;5014272;28;20046;-66
2022/05/07 11:41:59;;;;;;;0.17;0.17;;;19.50;99.90;;;;;;5027836;28;20072;-66
2022/05/07 11:47:23;;;;;;;1.38;0.95;;;19.60;99.90;;;;;;5029791;28;20045;-66
2022/05/07 11:50:05;;;;;;;0.60;0.60;;;19.80;99.90;;;;;;5026170;28;20057;-66
2022/05/07 11:52:30;;;;;;;9.57;1.35;;;20.10;99.90;;;;;;5018454;28;20037;-66
2022/05/07 11:54:56;;;;;;;0.25;0.25;;;20.30;99.90;;;;;;5027137;28;20053;-67
2022/05/07 11:57:33;;;;;;;0.35;0.35;;;19.90;99.90;;;;;;5022944;28;20046;-68
2022/05/07 12:00:16;;;;;;;1.35;1.00;;;19.70;99.90;;;;;;5027593;28;20681;-67
2022/05/07 12:02:49;;;;;;;0.35;0.35;;;19.40;99.90;;;;;;5019684;28;20103;-68
2022/05/07 12:05:15;;;;;;;6.05;0.65;;;19.70;99.90;;;;;;5008681;28;20493;-67
2022/05/07 12:07:41;;;;;;;3.63;0.90;;;19.60;99.90;;;;;;5020497;28;20048;-67
2022/05/07 12:10:08;;;;;;;0.00;0.00;;;19.50;99.90;;;;;;5014696;28;20107;-67
2022/05/07 12:12:33;;;;;;;0.43;0.43;;;19.40;99.90;;;;;;5024459;28;20705;-67
2022/05/07 12:14:59;;;;;;;0.70;0.70;;;19.40;99.90;;;;;;5025091;28;20045;-67
2022/05/07 12:20:10;;;;;;;2.53;0.93;;;19.20;99.90;;;;;;5014770;28;20049;-67
2022/05/07 12:30:52;;;;;;;0.00;0.00;;;19.80;99.90;;;;;;5028654;28;20212;-66
2022/05/07 12:33:18;;;;;;;0.20;0.20;;;20.10;99.90;;;;;;5024659;28;20120;-67
2022/05/07 12:35:43;;;;;;;1.13;1.13;;;20.00;99.90;;;;;;5009867;28;20560;-66
2022/05/07 12:38:10;;;;;;;0.35;0.22;;;19.70;99.90;;;;;;5010587;28;20055;-67
2022/05/07 12:40:36;;;;;;;0.10;0.10;;;20.10;99.90;;;;;;5018522;28;20128;-66
2022/05/07 12:43:01;;;;;;;0.85;0.50;;;20.40;99.90;;;;;;5026554;28;20073;-67
2022/05/07 12:45:27;;;;;;;0.32;0.28;;;20.20;99.90;;;;;;5025723;28;20050;-67
2022/05/07 12:47:53;;;;;;;0.32;0.32;;;20.10;99.90;;;;;;5021942;28;20045;-66
2022/05/07 12:50:19;;;;;;;0.00;0.00;;;19.80;99.90;;;;;;5023360;28;20049;-67
2022/05/07 12:52:44;;;;;;;0.22;0.22;;;20.00;99.90;;;;;;5011491;28;20046;-66
2022/05/07 12:55:10;;;;;;;0.98;0.85;;;20.70;99.90;;;;;;5018852;28;20072;-67
2022/05/07 12:57:35;;;;;;;1.77;1.63;;;21.10;99.90;;;;;;5028814;28;20069;-67
2022/05/07 13:00:01;;;;;;;0.10;0.10;;;21.50;99.90;;;;;;5026863;28;20045;-65
2022/05/07 13:02:26;;;;;;;1.45;0.40;;;21.50;99.90;;;;;;5019673;28;20037;-67
2022/05/07 13:04:52;;;;;;;0.08;0.08;;;21.50;99.90;;;;;;5017598;28;20041;-67
2022/05/07 13:07:17;;;;;;;0.80;0.25;;;21.40;99.90;;;;;;5006957;28;20058;-67
2022/05/07 13:09:43;;;;;;;0.55;0.52;;;21.10;99.90;;;;;;5023424;28;20168;-67
2022/05/07 13:12:13;;;;;;;0.88;0.13;;;21.00;99.90;;;;;;5028746;28;20037;-68
2022/05/07 13:14:39;;;;;;;0.20;0.10;;;20.60;99.90;;;;;;5022065;28;20081;-67
2022/05/07 13:17:05;;;;;;;1.20;1.10;;;20.50;99.90;;;;;;5019039;28;20594;-67
2022/05/07 13:19:31;;;;;;;0.10;0.10;;;20.50;99.90;;;;;;5024363;28;20116;-67
2022/05/07 13:21:57;;;;;;;0.10;0.10;;;20.50;99.90;;;;;;5007378;28;20486;-67
2022/05/07 13:24:22;;;;;;;0.08;0.08;;;20.40;99.90;;;;;;5014701;28;20389;-67
2022/05/07 13:26:48;;;;;;;0.10;0.10;;;20.20;99.90;;;;;;5027895;28;20050;-67
2022/05/07 13:29:13;;;;;;;0.25;0.25;;;20.00;99.90;;;;;;5011669;28;20486;-68